createdAt,value
2022-12-28T00:00:48.230Z,29.03
2022-12-28T00:03:51.824Z,25.35
2022-12-28T00:06:54.310Z,29.80
2022-12-28T00:09:56.773Z,28.80
2022-12-28T00:12:59.789Z,28.45
2022-12-28T00:16:10.890Z,29.27
2022-12-28T00:19:15.745Z,26.83
2022-12-28T00:22:18.168Z,30.27
2022-12-28T00:25:20.613Z,31.92
2022-12-28T00:28:23.132Z,34.33
2022-12-28T00:31:25.674Z,25.73
2022-12-28T00:34:28.137Z,29.25
2022-12-28T00:37:33.143Z,25.85
2022-12-28T00:40:35.638Z,25.97
2022-12-28T00:43:38.288Z,23.85
2022-12-28T00:46:40.913Z,28.80
2022-12-28T00:49:43.568Z,25.00
2022-12-28T00:52:46.135Z,24.75
2022-12-28T00:55:48.774Z,25.98
2022-12-28T00:58:56.595Z,23.05
2022-12-28T01:01:59.371Z,19.87
2022-12-28T01:05:02.075Z,23.02
2022-12-28T01:08:04.719Z,26.95
2022-12-28T01:11:18.853Z,21.70
2022-12-28T01:14:22.013Z,25.00
2022-12-28T01:17:24.665Z,25.38
2022-12-28T01:20:27.254Z,24.90
2022-12-28T01:23:29.697Z,29.20
2022-12-28T01:26:32.553Z,19.08
2022-12-28T01:29:35.822Z,27.58
2022-12-28T01:32:38.383Z,22.40
2022-12-28T01:35:40.886Z,19.80
2022-12-28T01:38:44.869Z,27.42
2022-12-28T01:41:47.404Z,21.83
2022-12-28T01:44:51.691Z,21.88
2022-12-28T01:47:56.427Z,23.65
2022-12-28T01:50:59.744Z,24.48
2022-12-28T01:54:04.186Z,21.27
2022-12-28T01:57:07.087Z,22.10
2022-12-28T02:00:13.036Z,25.92
2022-12-28T02:03:27.681Z,20.70
2022-12-28T02:06:31.525Z,21.60
2022-12-28T02:09:39.731Z,17.88
2022-12-28T02:12:43.726Z,25.83
2022-12-28T02:15:47.946Z,20.35
2022-12-28T02:18:50.657Z,22.15
2022-12-28T02:22:11.153Z,22.98
2022-12-28T02:25:24.593Z,21.88
2022-12-28T02:28:57.943Z,20.33
2022-12-28T02:32:14.830Z,20.17
2022-12-28T02:35:36.946Z,21.90
2022-12-28T02:39:08.471Z,28.33
2022-12-28T02:42:12.762Z,22.50
2022-12-28T02:45:58.756Z,22.83
2022-12-28T02:49:19.632Z,21.65
2022-12-28T02:52:21.996Z,24.27
2022-12-28T02:55:52.013Z,24.85
2022-12-28T02:59:03.162Z,23.30
2022-12-28T03:02:28.088Z,21.33
2022-12-28T03:05:59.563Z,24.92
2022-12-28T03:09:26.260Z,21.80
2022-12-28T03:12:35.947Z,19.33
2022-12-28T03:15:38.974Z,21.23
2022-12-28T03:19:18.136Z,23.30
2022-12-28T03:22:41.598Z,24.63
2022-12-28T03:26:05.566Z,19.73
2022-12-28T03:29:38.440Z,18.15
2022-12-28T03:32:41.000Z,25.50
2022-12-28T03:35:50.269Z,22.23
2022-12-28T03:39:03.705Z,25.73
2022-12-28T03:42:45.520Z,22.00
2022-12-28T03:46:01.439Z,22.48
2022-12-28T03:49:05.211Z,22.67
2022-12-28T03:52:09.784Z,20.57
2022-12-28T03:55:15.238Z,21.23
2022-12-28T03:58:21.508Z,21.30
2022-12-28T04:01:25.366Z,21.40
2022-12-28T04:04:29.087Z,21.98
2022-12-28T04:07:31.662Z,20.27
2022-12-28T04:10:36.082Z,22.77
2022-12-28T04:13:38.781Z,23.40
2022-12-28T04:16:48.821Z,24.30
2022-12-28T04:19:53.293Z,20.02
2022-12-28T04:22:56.028Z,19.30
2022-12-28T04:26:04.003Z,22.95
2022-12-28T04:29:07.611Z,22.23
2022-12-28T04:32:14.438Z,23.45
2022-12-28T04:35:16.938Z,21.60
2022-12-28T04:38:24.737Z,25.17
2022-12-28T04:41:27.650Z,22.23
2022-12-28T04:44:30.192Z,21.30
2022-12-28T04:47:32.781Z,21.23
2022-12-28T04:50:42.468Z,25.27
2022-12-28T04:53:45.093Z,24.03
2022-12-28T04:56:47.595Z,23.88
2022-12-28T04:59:50.157Z,22.50
2022-12-28T05:02:52.699Z,25.17
2022-12-28T05:05:55.203Z,20.13
2022-12-28T05:08:57.868Z,20.48
2022-12-28T05:12:00.530Z,21.67
2022-12-28T05:15:03.165Z,24.07
2022-12-28T05:18:05.977Z,21.95
2022-12-28T05:21:21.098Z,23.85
2022-12-28T05:24:23.656Z,23.33
2022-12-28T05:27:26.081Z,21.45
2022-12-28T05:30:28.910Z,23.75
2022-12-28T05:33:33.716Z,23.80
2022-12-28T05:36:38.099Z,23.45
2022-12-28T05:39:40.813Z,25.73
2022-12-28T05:42:49.465Z,26.67
2022-12-28T05:45:53.811Z,25.33
2022-12-28T05:48:56.447Z,27.75
2022-12-28T05:51:58.937Z,25.45
2022-12-28T05:55:01.422Z,27.03
2022-12-28T05:58:05.603Z,27.90
2022-12-28T06:01:17.500Z,22.23
2022-12-28T06:04:21.339Z,23.35
2022-12-28T06:07:23.775Z,29.85
2022-12-28T06:10:26.365Z,29.88
2022-12-28T06:13:29.502Z,35.10
2022-12-28T06:16:35.362Z,32.33
2022-12-28T06:19:37.936Z,37.33
2022-12-28T06:22:40.499Z,29.60
2022-12-28T06:25:42.999Z,31.23
2022-12-28T06:28:46.056Z,31.30
2022-12-28T06:31:51.117Z,33.08
2022-12-28T06:34:53.684Z,32.63
2022-12-28T06:37:56.174Z,29.08
2022-12-28T06:41:14.842Z,34.75
2022-12-28T06:44:17.667Z,34.85
2022-12-28T06:47:20.178Z,32.20
2022-12-28T06:50:22.792Z,33.38
2022-12-28T06:53:27.436Z,35.95
2022-12-28T06:56:32.350Z,32.53
2022-12-28T06:59:35.150Z,30.40
2022-12-28T07:02:37.821Z,35.05
2022-12-28T07:05:40.560Z,35.60
2022-12-28T07:08:44.205Z,31.73
2022-12-28T07:11:50.103Z,30.15
2022-12-28T07:14:52.548Z,32.80
2022-12-28T07:17:55.067Z,37.10
2022-12-28T07:21:05.832Z,31.52
2022-12-28T07:24:09.074Z,31.50
2022-12-28T07:27:11.640Z,35.23
2022-12-28T07:30:14.838Z,34.38
2022-12-28T07:33:17.307Z,34.38
2022-12-28T07:36:21.216Z,32.63
2022-12-28T07:39:23.771Z,34.47
2022-12-28T07:42:28.554Z,34.65
2022-12-28T07:45:30.983Z,38.95
2022-12-28T07:48:35.376Z,43.47
2022-12-28T07:51:39.401Z,34.50
2022-12-28T07:54:41.883Z,38.78
2022-12-28T07:57:44.339Z,34.47
2022-12-28T08:00:46.910Z,30.52
2022-12-28T08:03:54.284Z,30.85
2022-12-28T08:06:56.796Z,27.95
2022-12-28T08:09:59.409Z,26.23
2022-12-28T08:13:02.048Z,31.70
2022-12-28T08:16:05.498Z,30.73
2022-12-28T08:19:09.295Z,28.93
2022-12-28T08:22:11.830Z,23.85
2022-12-28T08:25:14.759Z,24.92
2022-12-28T08:28:17.252Z,27.83
2022-12-28T08:31:23.163Z,29.90
2022-12-28T08:34:27.381Z,25.05
2022-12-28T08:37:30.021Z,26.00
2022-12-28T08:40:32.479Z,23.10
2022-12-28T08:43:35.357Z,23.30
2022-12-28T08:46:38.023Z,21.67
2022-12-28T08:49:40.860Z,20.73
2022-12-28T08:52:43.329Z,21.60
2022-12-28T08:55:45.871Z,20.60
2022-12-28T08:58:49.823Z,27.03
2022-12-28T09:01:52.468Z,20.80
2022-12-28T09:04:55.037Z,25.80
2022-12-28T09:07:59.745Z,22.38
2022-12-28T09:11:04.588Z,22.13
2022-12-28T09:14:10.619Z,20.35
2022-12-28T09:17:13.109Z,19.02
2022-12-28T09:20:15.813Z,22.63
2022-12-28T09:23:18.835Z,20.17
2022-12-28T09:26:26.983Z,18.50
2022-12-28T09:29:30.073Z,18.63
2022-12-28T09:32:32.559Z,22.40
2022-12-28T09:35:35.078Z,18.27
2022-12-28T09:38:38.149Z,19.77
2022-12-28T09:42:11.283Z,20.07
2022-12-28T09:45:14.032Z,20.83
2022-12-28T09:48:22.616Z,22.67
2022-12-28T09:51:32.408Z,22.20
2022-12-28T09:54:35.043Z,21.07
2022-12-28T09:57:41.366Z,22.65
2022-12-28T10:00:53.118Z,24.77
2022-12-28T10:03:57.895Z,19.87
2022-12-28T10:07:02.163Z,19.37
2022-12-28T10:10:06.087Z,19.30
2022-12-28T10:16:48.956Z,14.60
2022-12-28T10:19:54.794Z,14.67
2022-12-28T10:22:58.785Z,13.63
2022-12-28T10:26:02.947Z,16.67
2022-12-28T10:29:06.074Z,14.43
2022-12-28T10:32:09.668Z,16.67
2022-12-28T10:35:22.856Z,17.05
2022-12-28T10:38:34.005Z,16.13
2022-12-28T10:41:38.518Z,14.88
2022-12-28T10:44:41.438Z,16.43
2022-12-28T10:47:48.415Z,16.98
2022-12-28T10:51:01.527Z,13.07
2022-12-28T10:54:28.222Z,14.30
2022-12-28T10:57:37.768Z,16.15
2022-12-28T11:00:40.992Z,13.23
2022-12-28T11:04:24.043Z,13.38
2022-12-28T11:07:39.727Z,17.95
2022-12-28T11:10:42.237Z,17.80
2022-12-28T11:13:52.677Z,15.48
2022-12-28T11:16:55.360Z,16.23
2022-12-28T11:20:06.974Z,14.20
2022-12-28T11:23:18.389Z,17.25
2022-12-28T11:26:21.981Z,17.73
2022-12-28T11:29:24.500Z,20.17
2022-12-28T11:32:42.363Z,15.23
2022-12-28T11:35:45.048Z,11.95
2022-12-28T11:38:51.001Z,14.93
2022-12-28T11:42:28.082Z,14.43
2022-12-28T11:45:50.399Z,22.42
2022-12-28T11:49:01.838Z,18.70
2022-12-28T11:52:27.609Z,17.50
2022-12-28T11:56:08.179Z,15.70
2022-12-28T11:59:20.912Z,16.77
2022-12-28T12:02:29.662Z,15.35
2022-12-28T12:05:38.036Z,15.70
2022-12-28T12:08:41.460Z,9.50
2022-12-28T12:11:44.411Z,13.52
2022-12-28T12:14:57.985Z,11.07
2022-12-28T12:18:07.426Z,12.50
2022-12-28T12:21:15.836Z,11.37
2022-12-28T12:25:01.743Z,13.43
2022-12-28T12:28:24.839Z,10.07
2022-12-28T12:31:39.576Z,12.63
2022-12-28T12:34:53.326Z,8.05
2022-12-28T12:38:04.012Z,10.67
2022-12-28T12:41:24.396Z,11.60
2022-12-28T12:44:56.598Z,11.70
2022-12-28T12:48:04.754Z,10.43
2022-12-28T12:51:32.593Z,9.68
2022-12-28T12:54:35.537Z,13.20
2022-12-28T12:57:58.808Z,11.10
2022-12-28T13:01:11.907Z,11.32
2022-12-28T13:04:20.584Z,16.33
2022-12-28T13:07:27.020Z,11.30
2022-12-28T13:10:31.892Z,14.33
2022-12-28T13:13:37.558Z,13.52
2022-12-28T13:16:40.233Z,14.40
2022-12-28T13:19:42.838Z,12.18
2022-12-28T13:22:46.984Z,14.55
2022-12-28T13:25:52.697Z,17.77
2022-12-28T13:29:00.975Z,13.20
2022-12-28T13:32:24.550Z,11.50
2022-12-28T13:35:30.373Z,10.55
2022-12-28T13:38:33.012Z,9.13
2022-12-28T13:41:36.320Z,14.57
2022-12-28T13:44:44.839Z,10.93
2022-12-28T13:47:51.236Z,11.68
2022-12-28T13:50:54.797Z,14.93
2022-12-28T13:54:00.975Z,16.65
2022-12-28T13:57:36.639Z,14.80
2022-12-28T14:00:27.450Z,14.13
2022-12-28T14:03:38.959Z,14.35
2022-12-28T14:06:43.895Z,13.98
2022-12-28T14:09:48.114Z,9.70
2022-12-28T14:12:51.707Z,8.37
2022-12-28T14:15:55.030Z,7.97
2022-12-28T14:18:58.283Z,10.95
2022-12-28T14:22:01.046Z,12.85
2022-12-28T14:25:18.744Z,11.90
2022-12-28T14:28:41.046Z,11.83
2022-12-28T14:31:45.158Z,10.75
2022-12-28T14:34:54.118Z,12.63
2022-12-28T14:38:01.397Z,9.88
2022-12-28T14:41:05.002Z,13.38
2022-12-28T14:44:16.065Z,10.27
2022-12-28T14:47:36.672Z,10.00
2022-12-28T14:50:55.922Z,8.45
2022-12-28T14:54:20.765Z,8.35
2022-12-28T14:57:28.587Z,7.40
2022-12-28T15:00:36.422Z,5.30
2022-12-28T15:04:04.988Z,8.73
2022-12-28T15:07:10.192Z,9.30
2022-12-28T15:10:12.870Z,9.98
2022-12-28T15:13:17.710Z,10.13
2022-12-28T15:16:25.476Z,11.10
2022-12-28T15:19:28.081Z,9.18
2022-12-28T15:22:30.715Z,11.88
2022-12-28T15:25:34.402Z,17.02
2022-12-28T15:28:38.147Z,14.20
2022-12-28T15:31:41.516Z,14.93
2022-12-28T15:34:44.122Z,21.08
2022-12-28T15:37:46.870Z,32.83
2022-12-28T15:40:54.402Z,29.40
2022-12-28T15:43:56.899Z,32.47
2022-12-28T15:46:59.446Z,20.80
2022-12-28T15:50:03.482Z,21.58
2022-12-28T15:53:06.147Z,26.05
2022-12-28T15:56:20.795Z,23.17
2022-12-28T15:59:24.105Z,25.98
2022-12-28T16:02:26.874Z,24.37
2022-12-28T16:05:29.540Z,29.05
2022-12-28T16:08:32.421Z,29.88
2022-12-28T16:11:35.216Z,28.70
2022-12-28T16:14:37.849Z,39.50
2022-12-28T16:17:51.113Z,37.47
2022-12-28T16:21:03.234Z,39.70
2022-12-28T16:24:05.934Z,37.92
2022-12-28T16:27:09.613Z,34.08
2022-12-28T16:30:12.662Z,35.97
2022-12-28T16:33:15.276Z,39.85
2022-12-28T16:36:20.052Z,41.70
2022-12-28T16:39:23.098Z,61.78
2022-12-28T16:42:25.901Z,71.22
2022-12-28T16:45:28.482Z,65.53
2022-12-28T16:48:30.985Z,62.63
2022-12-28T16:51:33.468Z,48.38
2022-12-28T16:54:36.023Z,51.47
2022-12-28T16:57:38.523Z,47.50
2022-12-28T17:00:41.045Z,47.70
2022-12-28T17:03:43.658Z,46.40
2022-12-28T17:06:48.656Z,48.45
2022-12-28T17:09:51.131Z,40.85
2022-12-28T17:12:53.705Z,37.87
2022-12-28T17:16:00.431Z,38.03
2022-12-28T17:19:03.591Z,27.10
2022-12-28T17:22:06.143Z,27.53
2022-12-28T17:25:08.954Z,24.63
2022-12-28T17:28:11.442Z,26.45
2022-12-28T17:31:17.884Z,21.48
2022-12-28T17:34:20.447Z,30.13
2022-12-28T17:37:22.975Z,21.63
2022-12-28T17:40:25.820Z,17.67
2022-12-28T17:43:28.568Z,21.65
2022-12-28T17:46:33.185Z,36.37
2022-12-28T17:49:35.929Z,33.33
2022-12-28T17:52:38.576Z,25.83
2022-12-28T17:55:41.156Z,19.98
2022-12-28T17:58:45.015Z,28.83
2022-12-28T18:01:47.684Z,19.90
2022-12-28T18:04:50.320Z,16.95
2022-12-28T18:07:52.859Z,14.45
2022-12-28T18:10:56.122Z,12.00
2022-12-28T18:13:59.244Z,13.00
2022-12-28T18:17:01.824Z,12.20
2022-12-28T18:20:04.891Z,14.32
2022-12-28T18:23:07.685Z,13.77
2022-12-28T18:26:14.414Z,18.50
2022-12-28T18:29:16.918Z,15.43
2022-12-28T18:32:19.373Z,17.20
2022-12-28T18:35:25.089Z,16.50
2022-12-28T18:38:27.566Z,18.13
2022-12-28T18:41:33.920Z,20.85
2022-12-28T18:44:37.105Z,14.13
2022-12-28T18:47:39.680Z,19.33
2022-12-28T18:50:52.115Z,16.23
2022-12-28T18:53:54.764Z,17.85
2022-12-28T18:56:57.289Z,14.57
2022-12-28T18:59:59.778Z,15.03
2022-12-28T19:03:02.338Z,18.80
2022-12-28T19:06:08.285Z,17.00
2022-12-28T19:09:11.593Z,18.75
2022-12-28T19:12:14.099Z,15.50
2022-12-28T19:15:16.768Z,16.55
2022-12-28T19:18:20.156Z,20.08
2022-12-28T19:21:34.222Z,17.00
2022-12-28T19:24:36.727Z,14.93
2022-12-28T19:27:39.123Z,14.52
2022-12-28T19:30:41.784Z,15.90
2022-12-28T19:33:44.598Z,14.20
2022-12-28T19:36:47.056Z,16.65
2022-12-28T19:39:54.735Z,15.18
2022-12-28T19:43:00.276Z,18.40
2022-12-28T19:46:03.914Z,18.37
2022-12-28T19:49:06.507Z,15.75
2022-12-28T19:52:10.972Z,21.45
2022-12-28T19:55:13.555Z,15.57
2022-12-28T19:58:16.106Z,19.63
2022-12-28T20:01:21.671Z,15.85
2022-12-28T20:04:24.499Z,19.25
2022-12-28T20:07:27.161Z,17.10
2022-12-28T20:10:31.161Z,19.98
2022-12-28T20:13:34.446Z,19.73
2022-12-28T20:16:37.013Z,20.37
2022-12-28T20:19:39.821Z,29.38
2022-12-28T20:22:42.450Z,27.42
2022-12-28T20:25:52.928Z,20.00
2022-12-28T20:28:57.401Z,23.88
2022-12-28T20:31:59.957Z,25.42
2022-12-28T20:35:02.867Z,24.73
2022-12-28T20:38:05.495Z,28.50
2022-12-28T20:41:09.615Z,26.10
2022-12-28T20:44:15.380Z,23.58
2022-12-28T20:47:18.013Z,25.80
2022-12-28T20:50:20.594Z,29.60
2022-12-28T20:53:23.600Z,26.58
2022-12-28T20:56:26.314Z,23.53
2022-12-28T20:59:29.177Z,26.70
2022-12-28T21:02:31.870Z,25.88
2022-12-28T21:05:35.077Z,29.65
2022-12-28T21:08:37.633Z,28.98
2022-12-28T21:11:40.399Z,27.98
2022-12-28T21:14:43.078Z,25.55
2022-12-28T21:17:45.505Z,25.20
2022-12-28T21:20:51.710Z,28.90
2022-12-28T21:23:54.249Z,26.73
2022-12-28T21:26:56.692Z,31.63
2022-12-28T21:29:59.230Z,30.83
2022-12-28T21:33:01.673Z,32.47
2022-12-28T21:36:07.698Z,39.15
2022-12-28T21:39:10.399Z,44.85
2022-12-28T21:42:12.948Z,32.75
2022-12-28T21:45:15.453Z,44.53
2022-12-28T21:48:17.983Z,39.50
2022-12-28T21:51:32.303Z,32.63
2022-12-28T21:54:34.955Z,32.17
2022-12-28T21:57:37.508Z,33.10
2022-12-28T22:00:58.368Z,29.33
2022-12-28T22:04:19.225Z,28.70
2022-12-28T22:07:22.655Z,32.72
2022-12-28T22:10:43.392Z,65.95
2022-12-28T22:13:45.871Z,40.00
2022-12-28T22:16:48.453Z,44.63
2022-12-28T22:19:50.947Z,31.00
2022-12-28T22:22:58.994Z,30.95
2022-12-28T22:26:01.496Z,36.40
2022-12-28T22:29:04.322Z,38.30
2022-12-28T22:32:07.176Z,39.63
2022-12-28T22:35:10.229Z,36.95
2022-12-28T22:38:12.752Z,41.25
2022-12-28T22:41:15.235Z,39.17
2022-12-28T22:44:17.735Z,47.42
2022-12-28T22:47:20.256Z,50.20
2022-12-28T22:50:22.869Z,47.50
2022-12-28T22:53:25.300Z,46.13
2022-12-28T22:56:27.890Z,47.05
2022-12-28T22:59:30.389Z,41.57
2022-12-28T23:02:33.136Z,43.10
2022-12-28T23:05:35.826Z,45.00
2022-12-28T23:08:38.609Z,50.65
2022-12-28T23:11:41.663Z,43.63
2022-12-28T23:15:02.517Z,49.80
2022-12-28T23:18:24.267Z,45.42
2022-12-28T23:21:45.384Z,44.57
2022-12-28T23:25:06.160Z,48.38
2022-12-28T23:28:14.119Z,42.58
2022-12-28T23:31:16.712Z,43.07
2022-12-28T23:34:19.311Z,50.95
2022-12-28T23:37:21.780Z,53.80
2022-12-28T23:40:25.012Z,48.60
2022-12-28T23:43:27.525Z,45.60
2022-12-28T23:46:30.259Z,63.60
2022-12-28T23:49:32.941Z,51.63
2022-12-28T23:52:35.422Z,55.73
2022-12-28T23:55:37.935Z,55.55
2022-12-28T23:58:40.459Z,52.55
